Mutum, Brazil
Current Conditions -  °F | °C
As of 4:00 PM on Friday 24 Oct 2014 (Local Time) from SBIP Reporting Station
Clear Clear  
Wind Chill: 88°   Ceiling: Unl
Heat Index: 88°   Visibility: 6mi
Dew Point: 59°   Wind: 5mph
Humidity: 38%   Direction: 210°SSW
Pressure: 29.94"   Gusts: NA
Location:  19.8°S, 41.44°W
Report Text: SBIP 241800Z 21004KT CAVOK 31/15 Q1014
Loading
Personal Weather Stations






























Interactive Weather Map
Tropical Storm Tracking
New forecast layout! Learn more

10-Day Weather Forecast

Advertisements
Track Severe Weather on mobile